Time;durP1;ratioP1;P1;durP2;ratioP2;P2;SDS_P1;SDS_P2;PMS_P1;PMS_P2;Temp;Humidity;BMP_temperature;BMP_pressure;BME280_temperature;BME280_humidity;BME280_pressure;Samples;Min_cycle;Max_cycle;Signal;HPM_P1;HPM_P2
2021/08/12 00:01:39;;;;;;;11.60;5.82;;;17.90;99.90;;;18.43;80.62;101659.25;5068547;28;20188;-71
2021/08/12 00:04:06;;;;;;;11.80;5.47;;;17.90;99.90;;;18.42;80.70;101659.31;5084466;28;20719;-71
2021/08/12 00:06:32;;;;;;;13.50;5.80;;;17.90;99.90;;;18.41;80.89;101660.25;5084160;28;20532;-71
2021/08/12 00:08:59;;;;;;;11.88;5.63;;;17.80;99.90;;;18.41;80.64;101663.75;5082983;28;20220;-70
2021/08/12 00:11:26;;;;;;;13.45;5.55;;;17.80;99.90;;;18.40;80.99;101661.19;5060103;28;20212;-72
2021/08/12 00:13:54;;;;;;;12.52;5.68;;;17.80;99.90;;;18.40;80.58;101664.69;5079204;28;20184;-70
2021/08/12 00:16:21;;;;;;;11.80;5.97;;;17.80;99.90;;;18.39;80.60;101664.75;5058646;28;20228;-70
2021/08/12 00:18:55;;;;;;;12.43;5.40;;;17.80;99.90;;;18.36;80.00;101663.13;5073510;28;20188;-71
2021/08/12 00:21:22;;;;;;;10.38;5.10;;;17.80;99.90;;;18.34;80.00;101665.00;5062243;28;20239;-71
2021/08/12 00:23:49;;;;;;;11.13;5.15;;;17.80;99.90;;;18.34;80.21;101661.47;5084003;28;20196;-71
2021/08/12 00:26:16;;;;;;;11.98;4.93;;;17.80;99.90;;;18.33;79.89;101671.25;5082948;28;20187;-70
2021/08/12 00:28:42;;;;;;;12.38;5.18;;;17.70;99.90;;;18.33;80.10;101670.38;5073314;28;20203;-70
2021/08/12 00:31:11;;;;;;;12.57;5.63;;;17.70;99.90;;;18.31;79.85;101672.25;5058100;28;20212;-70
2021/08/12 00:33:39;;;;;;;11.10;5.28;;;17.70;99.90;;;18.30;79.94;101668.75;5056204;28;20591;-68
2021/08/12 00:36:07;;;;;;;11.63;6.03;;;17.70;99.90;;;18.30;80.25;101662.59;5056859;28;20188;-70
2021/08/12 00:38:33;;;;;;;23.48;11.18;;;17.70;99.90;;;18.29;79.96;101668.81;5075982;28;20250;-71
2021/08/12 00:41:01;;;;;;;18.33;8.65;;;17.70;99.90;;;18.28;80.01;101672.44;5083549;28;20204;-70
2021/08/12 00:43:30;;;;;;;13.77;6.70;;;17.70;99.90;;;18.26;80.27;101677.81;5064838;28;20192;-71
2021/08/12 00:45:57;;;;;;;13.30;6.45;;;17.70;99.90;;;18.25;80.44;101677.91;5064608;28;20196;-72
2021/08/12 00:48:25;;;;;;;14.60;6.07;;;17.70;99.90;;;18.24;80.46;101671.75;5087506;28;20196;-72
2021/08/12 00:50:53;;;;;;;14.15;5.57;;;17.70;99.90;;;18.22;80.54;101668.31;5090564;28;20222;-71
2021/08/12 00:53:23;;;;;;;13.45;5.60;;;17.60;99.90;;;18.23;80.24;101670.03;5093568;28;20179;-72
2021/08/12 00:55:50;;;;;;;13.15;6.30;;;17.60;99.90;;;18.22;80.71;101668.31;5081036;28;20223;-71
2021/08/12 00:58:19;;;;;;;13.68;5.80;;;17.60;99.90;;;18.22;80.50;101670.13;5097657;28;20218;-72
2021/08/12 01:00:49;;;;;;;12.25;5.90;;;17.60;99.90;;;18.20;80.45;101669.34;5080780;28;20275;-72
2021/08/12 01:03:18;;;;;;;13.73;5.63;;;17.60;99.90;;;18.19;80.74;101672.91;5080946;28;20180;-73
2021/08/12 01:05:49;;;;;;;12.90;5.70;;;17.60;99.90;;;18.15;80.58;101672.22;5098005;28;20168;-73
2021/08/12 01:08:34;;;;;;;12.50;5.22;;;17.60;99.90;;;18.17;80.94;101669.50;5080147;28;20183;-71
2021/08/12 01:11:25;;;;;;;11.82;5.40;;;17.60;99.90;;;18.15;80.83;101668.72;5080329;28;20234;-73
2021/08/12 01:14:09;;;;;;;13.02;5.63;;;17.60;99.90;;;18.13;81.03;101673.25;5097551;28;20176;-73
2021/08/12 01:16:43;;;;;;;11.10;5.47;;;17.50;99.90;;;18.10;81.22;101668.94;5097461;28;20210;-72
2021/08/12 01:19:48;;;;;;;12.52;5.70;;;17.50;99.90;;;18.07;81.14;101665.63;5082381;28;20208;-71
2021/08/12 01:22:20;;;;;;;12.05;5.50;;;17.50;99.90;;;18.04;81.38;101663.13;5073907;28;20204;-70
2021/08/12 01:24:54;;;;;;;12.82;6.13;;;17.40;99.90;;;18.02;81.81;101665.03;5071639;28;20192;-72
2021/08/12 01:27:28;;;;;;;11.63;5.90;;;17.40;99.90;;;18.00;81.87;101669.53;5065410;28;20199;-70
2021/08/12 01:30:05;;;;;;;10.50;5.20;;;17.40;99.90;;;17.98;82.09;101666.13;5055852;28;20215;-69
2021/08/12 01:32:50;;;;;;;13.43;6.25;;;17.40;99.90;;;17.96;82.07;101671.50;5055194;28;20262;-70
2021/08/12 01:35:22;;;;;;;14.45;6.20;;;17.40;99.90;;;17.94;82.09;101668.06;5055397;28;20196;-72
2021/08/12 01:37:56;;;;;;;13.13;5.80;;;17.40;99.90;;;17.92;82.27;101661.97;5073144;28;20679;-71
2021/08/12 01:40:27;;;;;;;12.20;5.88;;;17.40;99.90;;;17.92;82.60;101663.75;5054973;28;20238;-71
2021/08/12 01:42:56;;;;;;;11.95;6.15;;;17.40;99.90;;;17.90;83.03;101669.16;5055048;28;20200;-71
2021/08/12 01:45:27;;;;;;;13.32;6.03;;;17.30;99.90;;;17.88;83.29;101667.53;5056906;28;20188;-71
2021/08/12 01:47:56;;;;;;;13.27;6.70;;;17.30;99.90;;;17.87;83.17;101679.03;5055747;28;20241;-70
2021/08/12 01:50:27;;;;;;;11.98;6.28;;;17.30;99.90;;;17.85;83.89;101673.00;5055132;28;20238;-71
2021/08/12 01:52:56;;;;;;;12.70;5.82;;;17.30;99.90;;;17.84;83.87;101673.91;5055244;28;20283;-71
2021/08/12 01:55:31;;;;;;;12.43;6.10;;;17.30;99.90;;;17.83;83.64;101669.56;5072192;28;20188;-71
2021/08/12 01:58:00;;;;;;;15.13;6.72;;;17.30;99.90;;;17.82;83.48;101671.34;5055056;28;20195;-71
2021/08/12 02:00:30;;;;;;;13.82;6.63;;;17.30;99.90;;;17.82;83.89;101663.41;5054905;28;20592;-71
2021/08/12 02:03:05;;;;;;;13.40;6.25;;;17.30;99.90;;;17.81;83.73;101664.34;5080148;28;20180;-71
2021/08/12 02:05:35;;;;;;;11.45;6.13;;;17.20;99.90;;;17.79;84.00;101670.66;5089741;28;20203;-72
2021/08/12 02:08:03;;;;;;;12.63;6.60;;;17.20;99.90;;;17.75;84.33;101669.13;5071389;28;20180;-72
2021/08/12 02:10:30;;;;;;;13.93;6.25;;;17.20;99.90;;;17.74;84.45;101670.03;5072886;28;20220;-71
2021/08/12 02:12:57;;;;;;;11.60;5.70;;;17.20;99.90;;;17.73;84.50;101678.91;5071158;28;20283;-72
2021/08/12 02:15:25;;;;;;;12.95;6.82;;;17.20;99.90;;;17.73;84.55;101673.63;5071469;28;20559;-71
2021/08/12 02:17:52;;;;;;;13.05;6.32;;;17.20;99.90;;;17.71;84.66;101675.50;5053653;28;20197;-72
2021/08/12 02:20:20;;;;;;;11.55;5.55;;;17.20;99.90;;;17.69;84.97;101672.94;5072112;28;20207;-72
2021/08/12 02:22:54;;;;;;;13.85;6.28;;;17.10;99.90;;;17.70;84.71;101668.50;5058180;28;20184;-72
2021/08/12 02:25:31;;;;;;;12.75;6.28;;;17.10;99.90;;;17.67;85.08;101668.63;5057971;28;20210;-72
2021/08/12 02:28:02;;;;;;;12.02;5.80;;;17.10;99.90;;;17.65;84.82;101670.53;5057475;28;20656;-71
2021/08/12 02:30:35;;;;;;;12.65;6.50;;;17.10;99.90;;;17.64;85.04;101658.19;5074358;28;20242;-72
2021/08/12 02:33:04;;;;;;;14.00;5.95;;;17.10;99.90;;;17.62;84.67;101665.34;5074533;28;20192;-72
2021/08/12 02:35:36;;;;;;;11.60;5.78;;;17.00;99.90;;;17.62;84.72;101665.34;5057677;28;20195;-72
2021/08/12 02:38:08;;;;;;;10.93;5.50;;;17.00;99.90;;;17.60;84.94;101660.16;5057675;28;20279;-70
2021/08/12 02:40:38;;;;;;;13.25;6.07;;;17.00;99.90;;;17.59;85.00;101658.44;5057632;28;20703;-70
2021/08/12 02:43:07;;;;;;;12.15;6.07;;;17.00;99.90;;;17.57;85.00;101657.66;5057419;28;20283;-71
2021/08/12 02:45:36;;;;;;;11.32;6.03;;;17.00;99.90;;;17.56;84.82;101660.38;5057304;28;20265;-71
2021/08/12 02:48:08;;;;;;;11.70;6.05;;;17.00;99.90;;;17.55;85.01;101658.69;5056997;28;20287;-72
2021/08/12 02:50:39;;;;;;;13.95;6.75;;;17.00;99.90;;;17.53;84.94;101658.78;5057204;28;20208;-71
2021/08/12 02:53:10;;;;;;;13.05;6.15;;;17.00;99.90;;;17.51;84.99;101655.34;5057519;28;20242;-69
2021/08/12 02:55:38;;;;;;;12.43;6.15;;;17.00;99.90;;;17.49;84.95;101655.41;5056923;28;20278;-71
2021/08/12 02:58:06;;;;;;;12.88;5.95;;;17.00;99.90;;;17.49;85.13;101655.41;5056933;28;20193;-70
2021/08/12 03:00:33;;;;;;;13.32;6.28;;;17.00;99.90;;;17.48;84.97;101653.69;5075020;28;20210;-71
2021/08/12 03:03:01;;;;;;;13.63;6.13;;;16.90;99.90;;;17.48;85.68;101656.34;5056828;28;20188;-70
2021/08/12 03:05:33;;;;;;;12.65;6.25;;;16.90;99.90;;;17.45;85.33;101652.94;5056504;28;20206;-71
2021/08/12 03:08:02;;;;;;;12.63;5.93;;;16.90;99.90;;;17.44;85.27;101657.41;5056914;28;20196;-72
2021/08/12 03:10:31;;;;;;;11.90;5.93;;;16.90;99.90;;;17.46;85.17;101657.38;5057053;28;20265;-70
2021/08/12 03:13:02;;;;;;;14.50;7.05;;;16.90;99.90;;;17.47;85.38;101662.56;5074049;28;20210;-71
2021/08/12 03:15:29;;;;;;;13.88;6.45;;;16.90;99.90;;;17.46;85.53;101663.50;5058189;28;20196;-71
2021/08/12 03:17:57;;;;;;;12.98;6.03;;;16.90;99.90;;;17.48;85.36;101658.16;5056775;28;20196;-71
2021/08/12 03:20:28;;;;;;;13.52;6.13;;;16.90;99.90;;;17.45;85.20;101659.16;5073784;28;20219;-71
2021/08/12 03:22:58;;;;;;;13.23;6.30;;;16.90;99.90;;;17.44;85.28;101661.84;5056866;28;20218;-71
2021/08/12 03:25:26;;;;;;;13.27;5.90;;;16.90;99.90;;;17.43;85.64;101662.78;5056807;28;20192;-70
2021/08/12 03:27:54;;;;;;;13.10;6.38;;;16.90;99.90;;;17.41;85.67;101668.13;5056330;28;20205;-70
2021/08/12 03:30:21;;;;;;;12.68;6.03;;;16.80;99.90;;;17.39;85.75;101669.16;5073570;28;20219;-71
2021/08/12 03:32:48;;;;;;;12.32;6.32;;;16.80;99.90;;;17.37;85.90;101671.00;5055930;28;20254;-72
2021/08/12 03:35:17;;;;;;;14.75;6.60;;;16.80;99.90;;;17.35;86.09;101671.09;5057548;28;20208;-71
2021/08/12 03:37:44;;;;;;;12.65;6.45;;;16.80;99.90;;;17.35;85.80;101686.09;5074856;28;20192;-70
2021/08/12 03:40:13;;;;;;;13.70;6.72;;;16.80;99.90;;;17.33;85.78;101696.78;5072979;28;20692;-71
2021/08/12 03:42:40;;;;;;;15.65;7.38;;;16.80;99.90;;;17.32;85.84;101697.72;5056509;28;20196;-71
2021/08/12 03:45:10;;;;;;;13.68;7.45;;;16.80;99.90;;;17.32;85.57;101703.00;5056726;28;20621;-70
2021/08/12 03:47:38;;;;;;;16.38;8.40;;;16.80;99.90;;;17.32;86.08;101697.72;5056439;28;20249;-71
2021/08/12 03:50:05;;;;;;;15.38;7.85;;;16.80;99.90;;;17.29;85.91;101700.53;5056370;28;20216;-71
2021/08/12 03:52:32;;;;;;;16.05;8.02;;;16.80;99.90;;;17.30;85.71;101696.06;5073271;28;20219;-70
2021/08/12 03:54:59;;;;;;;15.57;7.65;;;16.80;99.90;;;17.32;85.71;101700.38;5056607;28;20551;-70
2021/08/12 03:57:26;;;;;;;15.60;8.35;;;16.80;99.90;;;17.33;85.58;101695.94;5056187;28;20278;-70
2021/08/12 03:59:55;;;;;;;17.65;8.40;;;16.80;99.90;;;17.32;85.40;101695.06;5074295;28;20677;-70
2021/08/12 04:02:23;;;;;;;14.90;7.75;;;16.80;99.90;;;17.35;85.51;101694.91;5056369;28;20262;-70
2021/08/12 04:04:50;;;;;;;14.07;7.50;;;16.80;99.90;;;17.36;85.59;101693.13;5056405;28;20198;-71
2021/08/12 04:07:17;;;;;;;14.60;7.22;;;16.80;99.90;;;17.37;85.49;101698.34;5056080;28;20241;-70
2021/08/12 04:09:44;;;;;;;16.25;7.72;;;16.80;99.90;;;17.37;85.33;101695.69;5056157;28;20204;-71
2021/08/12 04:12:11;;;;;;;15.73;7.32;;;16.80;99.90;;;17.38;85.48;101694.75;5056000;28;20220;-71
2021/08/12 04:14:38;;;;;;;14.55;7.13;;;16.80;99.90;;;17.38;85.60;101699.22;5056104;28;20286;-71
2021/08/12 04:17:05;;;;;;;15.23;7.03;;;16.80;99.90;;;17.36;85.52;101693.13;5055709;28;20192;-70
2021/08/12 04:19:33;;;;;;;14.55;6.82;;;16.80;99.90;;;17.35;85.43;101697.56;5072417;28;20235;-71
2021/08/12 04:22:00;;;;;;;14.02;6.88;;;16.90;99.90;;;17.36;85.94;101699.25;5073448;28;20206;-72
2021/08/12 04:24:27;;;;;;;15.60;7.28;;;16.80;99.90;;;17.36;85.95;101701.91;5055910;28;20318;-71
2021/08/12 04:26:54;;;;;;;15.23;7.28;;;16.80;99.90;;;17.36;85.91;101701.06;5055985;28;20184;-71
2021/08/12 04:29:22;;;;;;;16.75;7.20;;;16.90;99.90;;;17.38;86.09;101710.63;5055759;28;20244;-70
2021/08/12 04:31:49;;;;;;;13.50;7.75;;;16.90;99.90;;;17.39;86.00;101706.22;5056200;28;20207;-72
2021/08/12 04:34:16;;;;;;;15.50;7.57;;;16.90;99.90;;;17.39;86.38;101708.84;5055922;28;20641;-71
2021/08/12 04:36:44;;;;;;;17.10;7.88;;;16.90;99.90;;;17.39;86.24;101707.06;5055554;28;20267;-71
2021/08/12 04:39:12;;;;;;;15.07;7.93;;;16.90;99.90;;;17.40;86.13;101706.13;5055952;28;20204;-71
2021/08/12 04:41:38;;;;;;;15.45;7.68;;;16.90;99.90;;;17.42;85.83;101717.50;5055470;28;20318;-71
2021/08/12 04:44:06;;;;;;;16.45;8.00;;;16.90;99.90;;;17.45;86.12;101713.81;5055445;28;20222;-69
2021/08/12 04:46:33;;;;;;;15.32;7.95;;;16.90;99.90;;;17.45;86.19;101716.47;5071862;28;20195;-71
2021/08/12 04:49:02;;;;;;;16.20;8.38;;;17.00;99.90;;;17.44;86.11;101720.94;5055624;28;20281;-71
2021/08/12 04:51:28;;;;;;;13.48;7.40;;;17.00;99.90;;;17.45;86.17;101720.03;5055166;28;20232;-70
2021/08/12 04:53:57;;;;;;;15.07;7.53;;;17.00;99.90;;;17.46;86.36;101723.53;5071921;28;20183;-71
2021/08/12 04:56:24;;;;;;;15.35;7.22;;;17.00;99.90;;;17.48;86.25;101722.50;5055358;28;20199;-71
2021/08/12 04:58:54;;;;;;;14.15;7.15;;;17.00;99.90;;;17.49;86.42;101708.38;5055015;28;20664;-71
2021/08/12 05:01:21;;;;;;;16.80;7.22;;;17.00;99.90;;;17.52;86.26;101716.16;5055271;28;20192;-72
2021/08/12 05:03:48;;;;;;;12.80;7.03;;;17.00;99.90;;;17.56;86.09;101719.50;5055330;28;20271;-71
2021/08/12 05:06:16;;;;;;;12.73;6.75;;;17.10;99.90;;;17.59;85.81;101710.53;5054626;28;20282;-71
2021/08/12 05:08:43;;;;;;;14.57;7.30;;;17.10;99.90;;;17.62;85.89;101710.38;5071762;28;20610;-70
2021/08/12 05:11:13;;;;;;;15.35;6.82;;;17.10;99.90;;;17.67;85.98;101717.16;5071668;28;20242;-68
2021/08/12 05:13:40;;;;;;;12.95;6.63;;;17.20;99.90;;;17.71;85.61;101715.22;5071882;28;20215;-71
2021/08/12 05:16:08;;;;;;;13.38;6.65;;;17.20;99.90;;;17.76;85.30;101715.84;5055387;28;20196;-70
2021/08/12 05:18:35;;;;;;;14.15;7.20;;;17.30;99.90;;;17.81;85.24;101727.06;5071959;28;20656;-71
2021/08/12 05:21:03;;;;;;;13.73;7.10;;;17.30;99.90;;;17.86;84.95;101725.03;5056748;28;20241;-71
2021/08/12 05:23:30;;;;;;;14.23;7.13;;;17.30;99.90;;;17.88;85.17;101726.66;5076495;28;20198;-71
2021/08/12 05:25:57;;;;;;;14.57;7.38;;;17.40;99.90;;;17.93;84.76;101726.44;5077040;28;20202;-72
2021/08/12 05:28:26;;;;;;;13.75;6.60;;;17.40;99.90;;;17.96;84.39;101727.13;5064553;28;20283;-71
2021/08/12 05:30:54;;;;;;;15.48;7.63;;;17.40;99.90;;;17.99;84.67;101726.97;5054866;28;20212;-71
2021/08/12 05:33:22;;;;;;;15.32;6.97;;;17.50;99.90;;;18.03;84.50;101719.72;5071513;28;20222;-71
2021/08/12 05:35:49;;;;;;;13.20;7.30;;;17.50;99.90;;;18.06;84.68;101717.78;5054677;28;20726;-70
2021/08/12 05:38:16;;;;;;;13.65;7.38;;;17.50;99.90;;;18.10;84.66;101721.13;5054273;28;20195;-70
2021/08/12 05:40:46;;;;;;;13.73;7.50;;;17.60;99.90;;;18.14;84.71;101718.22;5055317;28;20729;-68
2021/08/12 05:43:13;;;;;;;15.40;7.70;;;17.60;99.90;;;18.18;84.23;101719.78;5059570;28;20207;-71
2021/08/12 05:45:42;;;;;;;13.48;7.03;;;17.70;99.90;;;18.25;83.99;101723.78;5058525;28;20196;-71
2021/08/12 05:48:08;;;;;;;16.08;6.90;;;17.70;99.90;;;18.30;83.68;101732.34;5057720;28;20184;-71
2021/08/12 05:50:35;;;;;;;14.85;7.07;;;17.70;99.90;;;18.35;83.35;101727.66;5059480;28;20211;-71
2021/08/12 05:53:02;;;;;;;13.20;6.50;;;17.80;99.90;;;18.41;83.24;101726.53;5060015;28;20204;-69
2021/08/12 05:55:29;;;;;;;11.30;5.85;;;17.90;99.90;;;18.46;82.92;101725.34;5058586;28;20188;-71
2021/08/12 05:57:56;;;;;;;13.32;6.55;;;17.90;99.90;;;18.53;82.54;101725.88;5058118;28;20243;-71
2021/08/12 06:00:23;;;;;;;13.30;6.10;;;18.00;99.90;;;18.59;82.17;101720.22;5058039;28;20215;-71
2021/08/12 06:02:55;;;;;;;15.73;6.05;;;18.00;99.90;;;18.65;81.46;101725.22;5058012;28;20208;-71
2021/08/12 06:05:32;;;;;;;11.25;5.28;;;18.10;99.90;;;18.69;80.88;101717.00;5057742;28;20245;-70
2021/08/12 06:08:01;;;;;;;11.30;5.25;;;18.10;99.90;;;18.76;80.35;101722.81;5057493;28;20279;-71
2021/08/12 06:10:29;;;;;;;11.30;5.20;;;18.20;99.90;;;18.79;80.56;101721.81;5054590;28;20212;-71
2021/08/12 06:12:56;;;;;;;11.52;5.25;;;18.20;99.90;;;18.82;80.16;101727.81;5058183;28;20220;-70
2021/08/12 06:15:24;;;;;;;12.65;5.40;;;18.30;99.90;;;18.84;79.73;101728.53;5058245;28;20199;-69
2021/08/12 06:17:51;;;;;;;10.50;4.90;;;18.30;99.90;;;18.87;79.54;101727.53;5074372;28;20563;-70
2021/08/12 06:20:20;;;;;;;12.15;4.78;;;18.30;99.90;;;18.92;79.41;101730.78;5057359;28;20211;-72
2021/08/12 06:22:50;;;;;;;12.75;5.63;;;18.40;99.90;;;18.96;79.35;101730.53;5073312;28;20552;-71
2021/08/12 06:25:18;;;;;;;11.60;4.70;;;18.40;99.90;;;19.01;79.24;101732.91;5074357;28;20177;-71
2021/08/12 06:27:45;;;;;;;11.55;4.82;;;18.50;99.90;;;19.06;78.83;101730.84;5040562;28;20621;-71
2021/08/12 06:30:12;;;;;;;12.55;5.55;;;18.50;99.90;;;19.11;78.37;101731.44;5057902;28;20234;-71
2021/08/12 06:32:40;;;;;;;10.00;5.00;;;18.60;99.90;;;19.16;78.15;101738.22;5056587;28;20657;-71
2021/08/12 06:35:11;;;;;;;13.75;5.35;;;18.60;99.90;;;19.21;77.79;101741.47;5057378;28;20199;-70
2021/08/12 06:37:44;;;;;;;13.48;5.30;;;18.70;99.90;;;19.27;77.21;101737.63;5057323;28;20672;-71
2021/08/12 06:40:13;;;;;;;14.63;5.07;;;18.80;99.90;;;19.31;77.39;101742.69;5074265;28;20239;-71
2021/08/12 06:42:40;;;;;;;13.60;5.30;;;18.90;99.90;;;19.38;77.38;101744.06;5055915;28;20192;-71
2021/08/12 06:45:09;;;;;;;13.35;5.20;;;19.00;99.90;;;19.46;77.18;101747.13;5057032;28;20815;-71
2021/08/12 06:47:38;;;;;;;11.68;5.10;;;19.20;99.90;;;19.55;76.80;101757.25;5058279;28;20660;-72
2021/08/12 06:50:09;;;;;;;12.00;4.80;;;19.40;99.90;;;19.62;76.84;101753.28;5058036;28;20220;-72
2021/08/12 06:52:37;;;;;;;13.05;5.20;;;19.50;99.90;;;19.69;76.26;101759.94;5058358;28;20307;-71
2021/08/12 06:55:08;;;;;;;11.43;4.72;;;19.50;99.90;;;19.78;75.90;101758.53;5058373;28;20196;-70
2021/08/12 06:57:35;;;;;;;11.15;4.93;;;19.60;99.90;;;19.83;75.06;101757.31;5060624;28;20286;-70
2021/08/12 07:00:03;;;;;;;14.40;4.80;;;19.60;99.90;;;19.90;75.20;101752.50;5058871;28;20223;-71
2021/08/12 07:02:32;;;;;;;12.35;5.05;;;19.70;99.90;;;19.96;74.92;101753.00;5059062;28;20664;-71
2021/08/12 07:04:59;;;;;;;10.55;4.68;;;19.80;99.90;;;20.03;73.95;101749.97;5056252;28;20699;-72
2021/08/12 07:07:26;;;;;;;13.35;4.07;;;19.80;99.90;;;20.10;73.94;101753.97;5058825;28;20184;-70
2021/08/12 07:09:54;;;;;;;11.02;4.38;;;19.90;99.90;;;20.18;73.33;101757.91;5078679;28;20215;-70
2021/08/12 07:12:25;;;;;;;9.73;3.65;;;20.00;99.90;;;20.24;72.44;101762.88;5077515;28;20228;-70
2021/08/12 07:14:53;;;;;;;10.00;4.07;;;20.00;99.90;;;20.32;72.18;101759.72;5057456;28;20649;-71
2021/08/12 07:17:20;;;;;;;10.82;3.33;;;20.10;99.90;;;20.40;71.39;101757.44;5074530;28;20184;-70
2021/08/12 07:19:48;;;;;;;9.45;3.50;;;20.20;99.90;;;20.47;71.56;101764.97;5056876;28;20306;-71
2021/08/12 07:22:15;;;;;;;9.20;3.92;;;20.30;99.90;;;20.54;71.15;101763.66;5056740;28;20196;-70
2021/08/12 07:24:42;;;;;;;10.35;3.20;;;20.40;99.90;;;20.60;70.88;101762.38;5074740;28;20184;-70
2021/08/12 07:27:09;;;;;;;9.60;3.22;;;20.50;99.90;;;20.65;70.13;101761.16;5057906;28;20207;-70
2021/08/12 07:29:37;;;;;;;11.82;3.35;;;20.50;99.90;;;20.72;69.57;101765.16;5059923;28;20220;-70
2021/08/12 07:32:06;;;;;;;10.23;3.05;;;20.60;99.90;;;20.78;69.23;101772.75;5060653;28;20196;-70
2021/08/12 07:34:42;;;;;;;9.27;3.10;;;20.70;99.90;;;20.86;68.69;101766.94;5075919;28;20203;-70
2021/08/12 07:37:09;;;;;;;8.68;2.90;;;20.80;99.90;;;20.93;68.01;101752.31;5062539;28;20199;-71
2021/08/12 07:39:37;;;;;;;10.25;3.10;;;20.80;99.90;;;21.00;67.57;101758.97;5064577;28;20208;-70
2021/08/12 07:42:05;;;;;;;7.25;2.63;;;20.90;99.90;;;21.06;67.56;101756.78;5071994;28;20542;-72
2021/08/12 07:44:32;;;;;;;11.00;3.45;;;21.00;99.90;;;21.11;66.91;101757.34;5082652;28;20206;-71
2021/08/12 07:47:00;;;;;;;10.45;2.85;;;21.10;99.90;;;21.18;66.55;101763.13;5077053;28;20191;-71
2021/08/12 07:49:28;;;;;;;6.38;2.65;;;21.10;99.90;;;21.24;66.19;101757.38;5081740;28;20212;-73
2021/08/12 07:51:56;;;;;;;8.52;2.88;;;21.20;99.90;;;21.30;65.47;101748.97;5099188;28;20180;-73
2021/08/12 07:54:23;;;;;;;8.57;2.90;;;21.30;99.90;;;21.36;65.64;101753.06;5098600;28;20224;-73
2021/08/12 07:56:50;;;;;;;8.07;2.65;;;21.30;99.90;;;21.41;64.77;101749.16;5081965;28;20180;-73
2021/08/12 07:59:17;;;;;;;7.22;2.40;;;21.40;99.90;;;21.47;64.51;101754.06;5099763;28;20259;-73
2021/08/12 08:01:43;;;;;;;8.73;2.90;;;21.40;99.90;;;21.52;64.33;101754.63;5082338;28;20187;-72
2021/08/12 08:04:11;;;;;;;6.53;2.58;;;21.50;99.90;;;21.56;63.68;101748.13;5081969;28;20303;-72
2021/08/12 08:06:38;;;;;;;6.95;2.40;;;21.60;99.90;;;21.60;63.65;101751.47;5080935;28;20200;-72
2021/08/12 08:09:05;;;;;;;7.15;2.50;;;21.60;99.90;;;21.66;63.18;101751.91;5081631;28;20226;-72
2021/08/12 08:11:32;;;;;;;6.90;2.28;;;21.60;99.90;;;21.72;62.82;101747.97;5098988;28;20168;-73
2021/08/12 08:13:59;;;;;;;7.60;2.60;;;21.70;99.90;;;21.78;62.93;101740.47;5096827;28;20306;-73
2021/08/12 08:16:27;;;;;;;7.28;2.42;;;21.80;99.90;;;21.86;63.10;101750.59;5096149;28;20186;-73
2021/08/12 08:18:54;;;;;;;11.32;4.30;;;21.90;99.90;;;21.90;62.72;101747.59;5097263;28;20208;-72
2021/08/12 08:21:22;;;;;;;8.48;3.75;;;22.00;99.90;;;21.94;62.78;101743.78;5080589;28;20184;-71
2021/08/12 08:23:49;;;;;;;8.50;3.40;;;22.00;99.90;;;21.99;62.32;101744.31;5068479;28;20249;-72
2021/08/12 08:26:16;;;;;;;8.88;3.22;;;22.10;99.90;;;22.03;62.55;101737.81;5082826;28;20195;-71
2021/08/12 08:28:43;;;;;;;10.68;3.80;;;22.10;99.90;;;22.07;61.87;101733.97;5090292;28;20192;-71
2021/08/12 08:31:11;;;;;;;9.25;2.85;;;22.20;99.90;;;22.12;61.67;101733.69;5067505;28;20263;-71
2021/08/12 08:33:38;;;;;;;8.38;3.00;;;22.20;99.90;;;22.16;61.17;101722.69;5084813;28;20215;-71
2021/08/12 08:36:05;;;;;;;8.13;2.92;;;22.30;99.90;;;22.23;60.82;101728.44;5085299;28;20188;-70
2021/08/12 08:38:34;;;;;;;7.95;2.92;;;22.40;99.90;;;22.30;61.19;101733.22;5060852;28;20196;-71
2021/08/12 08:41:03;;;;;;;9.95;3.80;;;22.40;99.90;;;22.36;60.61;101735.47;5077501;28;20545;-72
2021/08/12 08:43:32;;;;;;;8.70;3.38;;;22.50;99.90;;;22.42;60.56;101735.03;5089934;28;20219;-71
2021/08/12 08:46:02;;;;;;;9.93;3.40;;;22.60;99.90;;;22.49;60.44;101729.28;5088418;28;20188;-71
2021/08/12 08:48:33;;;;;;;11.13;3.22;;;22.60;99.90;;;22.53;59.97;101734.31;5086421;28;20242;-71
2021/08/12 08:51:00;;;;;;;7.40;3.10;;;22.70;99.90;;;22.58;59.98;101742.84;5055512;28;20188;-71
2021/08/12 08:53:28;;;;;;;9.95;3.30;;;22.80;99.90;;;22.65;60.14;101744.13;5073468;28;20640;-71
2021/08/12 08:55:56;;;;;;;9.45;3.25;;;22.80;99.90;;;22.69;60.07;101742.09;5055743;28;20203;-71
2021/08/12 08:58:23;;;;;;;7.97;3.22;;;22.90;99.90;;;22.74;59.89;101726.59;5072944;28;20598;-71
2021/08/12 09:00:52;;;;;;;8.35;3.60;;;22.90;99.90;;;22.82;58.90;101742.94;5073109;28;20200;-72
2021/08/12 09:03:19;;;;;;;7.35;2.70;;;23.00;99.90;;;22.87;57.94;101738.09;5073461;28;20219;-71
2021/08/12 09:05:46;;;;;;;8.93;3.20;;;23.10;99.90;;;22.95;57.14;101744.59;5054494;28;20196;-73
2021/08/12 09:08:13;;;;;;;7.57;2.90;;;23.10;99.90;;;23.01;57.59;101732.59;5072750;28;20184;-71
2021/08/12 09:10:39;;;;;;;7.60;2.80;;;23.20;99.90;;;23.07;57.18;101740.19;5055485;28;20215;-70
2021/08/12 09:13:09;;;;;;;8.73;3.40;;;23.20;99.90;;;23.13;57.43;101737.06;5055588;28;20567;-69
2021/08/12 09:15:41;;;;;;;9.00;3.40;;;23.30;99.90;;;23.17;56.98;101727.84;5056502;28;20200;-71
2021/08/12 09:18:24;;;;;;;7.85;3.38;;;23.40;99.90;;;23.21;57.35;101737.38;5073024;28;20253;-71
2021/08/12 09:20:54;;;;;;;7.88;3.20;;;23.40;99.90;;;23.23;57.20;101738.94;5054949;28;20208;-71
2021/08/12 09:23:25;;;;;;;9.15;2.70;;;23.50;99.90;;;23.30;57.00;101734.03;5072916;28;20183;-71
2021/08/12 09:25:53;;;;;;;8.23;3.10;;;23.50;99.90;;;23.35;56.27;101737.22;5071529;28;20192;-70
2021/08/12 09:28:26;;;;;;;7.40;2.50;;;23.60;99.90;;;23.39;56.43;101734.19;5072925;28;20609;-71
2021/08/12 09:31:09;;;;;;;8.10;2.85;;;23.60;99.90;;;23.39;55.80;101733.34;5072812;28;20692;-71
2021/08/12 09:33:45;;;;;;;8.30;3.00;;;23.70;99.90;;;23.41;55.74;101726.09;5071762;28;20212;-71
2021/08/12 09:36:31;;;;;;;8.40;2.70;;;23.70;99.90;;;23.45;56.10;101738.22;5054832;28;20202;-70
2021/08/12 09:39:18;;;;;;;8.73;2.67;;;23.70;99.90;;;23.47;55.47;101729.16;5054822;28;20795;-72
2021/08/12 09:41:49;;;;;;;8.40;2.97;;;23.70;99.90;;;23.50;55.27;101723.56;5072567;28;20196;-72
2021/08/12 09:44:41;;;;;;;7.68;2.83;;;23.80;99.90;;;23.58;55.72;101730.16;5072422;28;20187;-71
2021/08/12 09:47:12;;;;;;;8.98;3.25;;;23.90;99.90;;;23.60;55.19;101734.41;5072374;28;20199;-71
2021/08/12 09:49:46;;;;;;;10.15;2.95;;;23.90;99.90;;;23.59;55.33;101725.53;5072116;28;20216;-72
2021/08/12 09:52:27;;;;;;;8.48;2.92;;;23.90;99.90;;;23.57;55.26;101729.31;5072574;28;20187;-71
2021/08/12 09:55:09;;;;;;;7.80;2.95;;;23.90;99.90;;;23.62;55.44;101727.13;5054415;28;20314;-72
2021/08/12 09:57:44;;;;;;;7.70;2.90;;;23.90;99.90;;;23.70;54.88;101730.06;5054071;28;20200;-72
2021/08/12 10:00:29;;;;;;;7.55;3.15;;;24.00;99.90;;;23.80;54.31;101727.53;5054439;28;20211;-70
2021/08/12 10:02:57;;;;;;;7.47;2.65;;;24.10;99.90;;;23.88;53.77;101725.16;5054532;28;20245;-71
2021/08/12 10:05:24;;;;;;;7.40;3.00;;;24.20;99.90;;;23.95;53.38;101723.69;5071470;28;20187;-68
2021/08/12 10:07:55;;;;;;;7.18;2.70;;;24.30;99.90;;;24.02;53.58;101727.63;5071829;28;20190;-72
2021/08/12 10:10:24;;;;;;;7.57;3.03;;;24.30;99.90;;;23.99;53.28;101723.41;5071671;28;20257;-72
2021/08/12 10:12:53;;;;;;;7.53;2.55;;;24.30;99.90;;;23.90;53.60;101717.84;5071968;28;20180;-72
2021/08/12 10:15:25;;;;;;;8.80;3.30;;;24.20;99.90;;;23.95;53.21;101721.00;5072329;28;20266;-72
2021/08/12 10:17:54;;;;;;;6.40;2.47;;;24.20;99.90;;;23.98;52.01;101721.66;5053961;28;20623;-72